VEGT/GAU METAR and TAF weather

Enter ICAO airport designator
Station Type Date Time Source
VEGT METAR 2022/11/30 16:30 UTC NOAA

VEGT 301630Z 00000KT 3000 BR FEW020 SCT100 19/19 Q1013 NOSIG


Station Type Date Time Source
VEGT Decoded METAR 2022/11/30 16:30 UTC NOAA

Gauhati, India (VEGT) 26-06N 091-35E 54M
Nov 30, 2022 - 11:30 AM EST / 2022.11.30 1630 UTC
Wind: Calm:0
Visibility: 1 mile(s):0
Sky conditions: partly cloudy
Weather: mist
Temperature: 66 F (19 C)
Dew Point: 66 F (19 C)
Relative Humidity: 100%
Pressure (altimeter): 29.91 in. Hg (1013 hPa)
ob: VEGT 301630Z 00000KT 3000 BR FEW020 SCT100 19/19 Q1013 NOSIG
cycle: 16

Station Type Date Time Source
VEGT TAF 2022/10/02 12:00 UTC NOAA

TAF VEGT 021100Z 0212/0318 27005KT 3000 -RA BR SCT018 BKN100
TEMPO 0215/0217 1500 TSRA FEW010 SCT018 FEW025CB BKN090
BECMG 0303/0305 34005KT 5000 HZ SCT018 SCT100
BECMG 0313/0315 00000KT 3000 BR

Example: see airport list